createdAt,value
2023-05-03T00:02:15.134Z,102415.09
2023-05-03T00:04:46.523Z,102412.31
2023-05-03T00:07:13.812Z,102427.63
2023-05-03T00:09:40.719Z,102420.97
2023-05-03T00:12:07.904Z,102417.84
2023-05-03T00:14:38.237Z,102405.97
2023-05-03T00:17:08.595Z,102423.69
2023-05-03T00:19:35.728Z,102411.56
2023-05-03T00:22:02.798Z,102406.03
2023-05-03T00:24:29.650Z,102414.72
2023-05-03T00:26:56.416Z,102406.56
2023-05-03T00:29:23.284Z,102403.22
2023-05-03T00:31:50.080Z,102411.38
2023-05-03T00:34:17.075Z,102406.06
2023-05-03T00:36:43.749Z,102412.13
2023-05-03T00:39:11.725Z,102402.56
2023-05-03T00:41:39.736Z,102410.63
2023-05-03T00:44:06.681Z,102402.25
2023-05-03T00:46:33.405Z,102393.88
2023-05-03T00:49:00.167Z,102391.06
2023-05-03T00:51:28.150Z,102400.44
2023-05-03T00:53:55.145Z,102395.13
2023-05-03T00:56:23.456Z,102389.84
2023-05-03T00:58:53.458Z,102391.19
2023-05-03T01:01:21.508Z,102380.00
2023-05-03T01:03:48.447Z,102379.59
2023-05-03T01:06:27.332Z,102385.34
2023-05-03T01:09:46.734Z,102381.53
2023-05-03T01:12:41.518Z,102372.16
2023-05-03T01:15:12.272Z,102378.72
2023-05-03T01:17:45.461Z,102380.91
2023-05-03T01:20:14.239Z,102380.03
2023-05-03T01:22:51.261Z,102390.34
2023-05-03T01:25:18.508Z,102387.72
2023-05-03T01:27:45.669Z,102388.66
2023-05-03T01:30:13.528Z,102390.97
2023-05-03T01:32:49.572Z,102392.47
2023-05-03T01:35:31.478Z,102384.91
2023-05-03T01:37:58.843Z,102388.47
2023-05-03T01:40:27.334Z,102393.47
2023-05-03T01:42:55.682Z,102393.47
2023-05-03T01:45:22.708Z,102399.84
2023-05-03T01:47:49.720Z,102396.91
2023-05-03T01:50:16.732Z,102397.88
2023-05-03T01:52:45.120Z,102391.91
2023-05-03T01:55:12.250Z,102382.38
2023-05-03T01:57:38.988Z,102387.44
2023-05-03T02:00:07.185Z,102387.00
2023-05-03T02:02:39.473Z,102391.09
2023-05-03T02:05:06.776Z,102383.72
2023-05-03T02:07:33.944Z,102383.16
2023-05-03T02:10:01.221Z,102386.66
2023-05-03T02:12:28.238Z,102388.47
2023-05-03T02:14:55.049Z,102370.03
2023-05-03T02:17:22.197Z,102369.88
2023-05-03T02:19:48.985Z,102371.06
2023-05-03T02:22:15.786Z,102366.03
2023-05-03T02:24:43.650Z,102363.38
2023-05-03T02:27:10.448Z,102359.03
2023-05-03T02:29:37.814Z,102357.84
2023-05-03T02:32:05.851Z,102360.16
2023-05-03T02:34:33.130Z,102348.59
2023-05-03T02:37:00.629Z,102350.44
2023-05-03T02:39:29.308Z,102365.47
2023-05-03T02:41:56.919Z,102363.06
2023-05-03T02:44:23.751Z,102358.81
2023-05-03T02:46:50.448Z,102361.66
2023-05-03T02:49:17.706Z,102349.19
2023-05-03T02:51:44.623Z,102352.41
2023-05-03T02:54:11.597Z,102354.03
2023-05-03T02:56:38.750Z,102357.06
2023-05-03T02:59:05.564Z,102358.63
2023-05-03T03:01:34.161Z,102361.47
2023-05-03T03:04:01.356Z,102355.66
2023-05-03T03:06:30.079Z,102355.66
2023-05-03T03:08:57.212Z,102361.97
2023-05-03T03:11:24.399Z,102358.97
2023-05-03T03:13:52.045Z,102365.66
2023-05-03T03:16:20.766Z,102357.91
2023-05-03T03:18:48.018Z,102340.38
2023-05-03T03:21:15.518Z,102340.16
2023-05-03T03:23:42.535Z,102341.31
2023-05-03T03:26:09.481Z,102336.38
2023-05-03T03:28:36.417Z,102332.72
2023-05-03T03:31:08.543Z,102336.50
2023-05-03T03:33:36.115Z,102334.88
2023-05-03T03:36:10.437Z,102348.81
2023-05-03T03:38:41.822Z,102348.47
2023-05-03T03:41:10.983Z,102344.41
2023-05-03T03:43:38.512Z,102346.41
2023-05-03T03:46:09.900Z,102341.09
2023-05-03T03:48:36.839Z,102353.06
2023-05-03T03:51:10.491Z,102354.78
2023-05-03T03:53:43.378Z,102358.78
2023-05-03T03:56:10.466Z,102364.16
2023-05-03T03:58:37.380Z,102371.47
2023-05-03T04:01:06.898Z,102377.06
2023-05-03T04:03:33.927Z,102387.69
2023-05-03T04:06:01.464Z,102384.44
2023-05-03T04:08:35.658Z,102374.72
2023-05-03T04:11:02.989Z,102387.41
2023-05-03T04:13:34.478Z,102392.06
2023-05-03T04:16:02.660Z,102391.72
2023-05-03T04:18:31.888Z,102409.09
2023-05-03T04:21:00.386Z,102404.78
2023-05-03T04:23:27.813Z,102401.53
2023-05-03T04:25:56.009Z,102396.69
2023-05-03T04:28:27.529Z,102400.47
2023-05-03T04:30:54.469Z,102392.28
2023-05-03T04:33:24.560Z,102397.50
2023-05-03T04:35:53.898Z,102400.44
2023-05-03T04:38:20.881Z,102395.00
2023-05-03T04:40:48.263Z,102405.91
2023-05-03T04:43:15.436Z,102409.41
2023-05-03T04:45:45.564Z,102417.00
2023-05-03T04:48:18.241Z,102420.50
2023-05-03T04:50:48.274Z,102419.38
2023-05-03T04:53:20.040Z,102413.47
2023-05-03T04:55:53.273Z,102425.38
2023-05-03T04:58:20.751Z,102427.81
2023-05-03T05:00:49.190Z,102420.22
2023-05-03T05:03:23.279Z,102420.81
2023-05-03T05:05:51.746Z,102424.56
2023-05-03T05:08:21.020Z,102420.53
2023-05-03T05:10:53.029Z,102426.69
2023-05-03T05:13:24.271Z,102418.13
2023-05-03T05:15:51.143Z,102418.63
2023-05-03T05:18:18.429Z,102422.16
2023-05-03T05:20:46.696Z,102412.94
2023-05-03T05:23:13.689Z,102404.53
2023-05-03T05:25:43.501Z,102416.81
2023-05-03T05:28:11.347Z,102421.13
2023-05-03T05:30:39.748Z,102418.13
2023-05-03T05:33:07.446Z,102426.91
2023-05-03T05:35:34.383Z,102426.19
2023-05-03T05:38:01.511Z,102429.63
2023-05-03T05:40:29.989Z,102428.91
2023-05-03T05:42:58.118Z,102425.59
2023-05-03T05:45:26.187Z,102418.97
2023-05-03T05:47:54.172Z,102430.63
2023-05-03T05:50:21.491Z,102422.03
2023-05-03T05:52:54.967Z,102432.53
2023-05-03T05:55:24.060Z,102431.47
2023-05-03T05:57:51.453Z,102426.28
2023-05-03T06:00:22.041Z,102437.06
2023-05-03T06:02:49.540Z,102436.72
2023-05-03T06:05:19.397Z,102429.25
2023-05-03T06:07:48.978Z,102430.59
2023-05-03T06:10:16.094Z,102430.94
2023-05-03T06:12:46.930Z,102425.56
2023-05-03T06:15:18.826Z,102430.03
2023-05-03T06:17:46.105Z,102425.97
2023-05-03T06:20:13.116Z,102421.03
2023-05-03T06:22:41.566Z,102417.00
2023-05-03T06:25:10.811Z,102411.34
2023-05-03T06:27:39.787Z,102413.44
2023-05-03T06:30:08.318Z,102416.34
2023-05-03T06:32:35.464Z,102410.97
2023-05-03T06:35:03.614Z,102411.47
2023-05-03T06:37:30.539Z,102409.34
2023-05-03T06:39:57.352Z,102413.69
2023-05-03T06:42:24.443Z,102399.13
2023-05-03T06:45:04.243Z,102392.88
2023-05-03T06:47:31.155Z,102398.94
2023-05-03T06:49:58.185Z,102399.38
2023-05-03T06:52:25.056Z,102401.00
2023-05-03T06:54:53.053Z,102413.59
2023-05-03T06:57:19.917Z,102400.72
2023-05-03T06:59:46.682Z,102401.09
2023-05-03T07:02:14.062Z,102391.59
2023-05-03T07:04:43.620Z,102387.41
2023-05-03T07:07:10.465Z,102390.41
2023-05-03T07:09:43.308Z,102383.13
2023-05-03T07:12:11.311Z,102389.03
2023-05-03T07:14:39.822Z,102385.31
2023-05-03T07:17:06.764Z,102390.44
2023-05-03T07:19:33.626Z,102382.97
2023-05-03T07:22:02.905Z,102385.72
2023-05-03T07:24:30.047Z,102390.16
2023-05-03T07:26:58.144Z,102387.91
2023-05-03T07:29:24.988Z,102372.97
2023-05-03T07:31:53.655Z,102372.31
2023-05-03T07:34:21.411Z,102368.63
2023-05-03T07:36:48.086Z,102369.00
2023-05-03T07:39:15.089Z,102373.81
2023-05-03T07:41:42.582Z,102371.00
2023-05-03T07:44:09.882Z,102371.81
2023-05-03T07:46:37.840Z,102365.19
2023-05-03T07:49:06.526Z,102367.47
2023-05-03T07:51:37.599Z,102360.00
2023-05-03T07:54:05.249Z,102366.06
2023-05-03T07:56:32.334Z,102357.94
2023-05-03T07:59:08.335Z,102354.41
2023-05-03T08:01:37.111Z,102366.25
2023-05-03T08:04:04.926Z,102370.47
2023-05-03T08:06:33.229Z,102359.47
2023-05-03T08:09:01.072Z,102363.38
2023-05-03T08:11:29.746Z,102350.19
2023-05-03T08:13:57.307Z,102350.28
2023-05-03T08:16:25.057Z,102362.53
2023-05-03T08:18:51.995Z,102347.03
2023-05-03T08:21:19.454Z,102342.28
2023-05-03T08:23:46.506Z,102343.38
2023-05-03T08:26:14.748Z,102346.84
2023-05-03T08:28:42.496Z,102344.19
2023-05-03T08:31:09.647Z,102332.50
2023-05-03T08:33:37.909Z,102340.72
2023-05-03T08:36:05.306Z,102330.72
2023-05-03T08:38:32.775Z,102334.75
2023-05-03T08:40:59.977Z,102340.97
2023-05-03T08:43:29.025Z,102341.16
2023-05-03T08:45:56.656Z,102348.09
2023-05-03T08:48:24.131Z,102345.69
2023-05-03T08:50:52.992Z,102344.56
2023-05-03T08:53:20.151Z,102344.69
2023-05-03T08:55:47.173Z,102341.75
2023-05-03T08:58:19.083Z,102335.91
2023-05-03T09:00:46.973Z,102325.22
2023-05-03T09:03:14.204Z,102333.56
2023-05-03T09:05:46.661Z,102339.22
2023-05-03T09:08:14.812Z,102350.22
2023-05-03T09:13:44.954Z,102337.53
2023-05-03T09:19:12.760Z,102344.41
2023-05-03T09:28:05.770Z,102328.38
2023-05-03T09:30:41.198Z,102335.09
2023-05-03T09:33:09.610Z,102329.16
2023-05-03T09:35:40.846Z,102334.59
2023-05-03T09:48:28.528Z,102324.25
2023-05-03T09:50:56.616Z,102314.28
2023-05-03T09:53:24.330Z,102311.41
2023-05-03T09:59:21.199Z,102309.00
2023-05-03T10:02:00.064Z,102308.50
2023-05-03T10:04:28.564Z,102307.19
2023-05-03T10:07:01.248Z,102313.47
2023-05-03T10:12:26.364Z,102293.63
2023-05-03T10:18:15.262Z,102322.97
2023-05-03T10:20:50.943Z,102309.13
2023-05-03T11:05:07.031Z,102255.31
2023-05-03T11:07:34.807Z,102264.19
2023-05-03T11:10:02.076Z,102253.16
2023-05-03T11:12:29.406Z,102263.88
2023-05-03T11:14:57.055Z,102263.16
2023-05-03T11:17:23.942Z,102275.19
2023-05-03T11:19:50.835Z,102264.13
2023-05-03T11:22:23.228Z,102263.38
2023-05-03T11:24:51.717Z,102262.91
2023-05-03T11:27:24.750Z,102257.09
2023-05-03T11:29:53.092Z,102249.84
2023-05-03T11:32:21.455Z,102255.38
2023-05-03T11:34:48.387Z,102257.69
2023-05-03T11:37:16.518Z,102245.81
2023-05-03T11:39:43.314Z,102244.34
2023-05-03T11:42:10.476Z,102244.38
2023-05-03T11:44:37.941Z,102246.00
2023-05-03T11:47:05.348Z,102241.38
2023-05-03T11:49:32.504Z,102243.34
2023-05-03T11:51:59.875Z,102235.75
2023-05-03T11:54:28.093Z,102234.66
2023-05-03T11:56:59.915Z,102223.81
2023-05-03T11:59:40.610Z,102228.31
2023-05-03T12:02:09.949Z,102209.75
2023-05-03T12:04:42.213Z,102216.38
2023-05-03T12:07:11.485Z,102220.31
2023-05-03T12:09:40.223Z,102218.19
2023-05-03T12:12:10.601Z,102201.69
2023-05-03T12:15:03.475Z,102196.31
2023-05-03T12:17:42.435Z,102197.22
2023-05-03T12:22:57.883Z,102199.16
2023-05-03T12:25:28.763Z,102176.50
2023-05-03T12:28:18.716Z,102187.28
2023-05-03T12:30:47.703Z,102173.41
2023-05-03T12:33:16.897Z,102170.41
2023-05-03T12:35:47.686Z,102171.38
2023-05-03T12:38:17.906Z,102166.41
2023-05-03T12:40:47.108Z,102158.16
2023-05-03T12:43:15.020Z,102145.47
2023-05-03T12:45:46.576Z,102153.59
2023-05-03T12:48:17.557Z,102139.03
2023-05-03T12:50:45.552Z,102146.25
2023-05-03T12:53:16.968Z,102130.06
2023-05-03T12:55:44.972Z,102126.75
2023-05-03T12:58:43.238Z,102126.56
2023-05-03T13:03:33.117Z,102114.63
2023-05-03T13:06:07.530Z,102105.97
2023-05-03T13:11:07.135Z,102113.00
2023-05-03T13:13:34.322Z,102113.31
2023-05-03T13:16:02.127Z,102105.78
2023-05-03T13:18:29.815Z,102098.50
2023-05-03T13:20:56.939Z,102091.69
2023-05-03T13:23:24.115Z,102090.47
2023-05-03T13:25:54.367Z,102083.25
2023-05-03T13:28:24.455Z,102081.66
2023-05-03T13:30:51.560Z,102084.84
2023-05-03T13:33:18.549Z,102079.63
2023-05-03T13:35:47.631Z,102070.50
2023-05-03T13:38:15.154Z,102067.03
2023-05-03T13:40:42.096Z,102071.56
2023-05-03T13:43:09.114Z,102062.13
2023-05-03T13:45:36.034Z,102080.06
2023-05-03T13:48:16.653Z,102067.34
2023-05-03T13:50:46.149Z,102061.09
2023-05-03T13:53:13.104Z,102060.41
2023-05-03T13:55:40.111Z,102050.50
2023-05-03T13:58:06.866Z,102048.03
2023-05-03T14:00:33.703Z,102039.44
2023-05-03T14:03:00.988Z,102048.34
2023-05-03T14:05:27.948Z,102033.41
2023-05-03T14:07:54.916Z,102033.66
2023-05-03T14:10:21.642Z,102030.69
2023-05-03T14:12:49.215Z,102027.31
2023-05-03T14:15:16.982Z,102029.06
2023-05-03T14:17:47.332Z,102021.69
2023-05-03T14:20:17.281Z,102025.53
2023-05-03T14:22:45.421Z,102024.50
2023-05-03T14:25:12.774Z,102024.28
2023-05-03T14:27:40.353Z,102014.28
2023-05-03T14:30:07.873Z,102011.69
2023-05-03T14:32:35.159Z,102008.09
2023-05-03T14:35:02.300Z,102013.41
2023-05-03T14:37:29.245Z,102004.69
2023-05-03T14:39:56.401Z,102002.59
2023-05-03T14:42:23.387Z,102005.66
2023-05-03T14:44:50.318Z,102000.56
2023-05-03T14:47:17.766Z,101999.88
2023-05-03T14:49:44.514Z,101995.81
2023-05-03T14:52:11.548Z,102001.22
2023-05-03T14:54:38.376Z,101988.09
2023-05-03T14:57:05.570Z,101985.38
2023-05-03T14:59:33.767Z,101982.59
2023-05-03T15:02:01.886Z,101991.41
2023-05-03T15:04:29.285Z,101968.28
2023-05-03T15:07:06.901Z,101981.81
2023-05-03T15:09:34.143Z,101973.59
2023-05-03T15:12:02.240Z,101955.56
2023-05-03T15:14:29.122Z,101960.88
2023-05-03T15:16:58.121Z,101961.91
2023-05-03T15:19:26.919Z,101956.00
2023-05-03T15:21:54.146Z,101950.19
2023-05-03T15:24:22.199Z,101950.84
2023-05-03T15:26:49.313Z,101945.00
2023-05-03T15:29:16.420Z,101942.00
2023-05-03T15:31:43.887Z,101946.69
2023-05-03T15:34:12.627Z,101944.50
2023-05-03T15:36:40.754Z,101940.25
2023-05-03T15:39:08.003Z,101936.09
2023-05-03T15:41:37.460Z,101935.03
2023-05-03T15:44:05.562Z,101941.53
2023-05-03T15:46:33.889Z,101933.47
2023-05-03T15:49:01.361Z,101944.50
2023-05-03T15:51:31.687Z,101921.38
2023-05-03T15:53:58.940Z,101932.75
2023-05-03T15:56:27.966Z,101934.28
2023-05-03T15:58:54.904Z,101926.41
2023-05-03T16:01:21.708Z,101922.31
2023-05-03T16:03:48.865Z,101929.06
2023-05-03T16:06:18.819Z,101910.69
2023-05-03T16:08:46.055Z,101918.94
2023-05-03T16:11:13.721Z,101915.31
2023-05-03T16:13:40.646Z,101923.53
2023-05-03T16:16:07.936Z,101915.13
2023-05-03T16:18:39.118Z,101918.31
2023-05-03T16:21:12.495Z,101916.72
2023-05-03T16:23:39.479Z,101912.47
2023-05-03T16:26:14.568Z,101907.00
2023-05-03T16:28:41.803Z,101913.03
2023-05-03T16:31:08.658Z,101924.09
2023-05-03T16:33:35.873Z,101918.66
2023-05-03T16:36:02.758Z,101914.22
2023-05-03T16:38:30.939Z,101917.25
2023-05-03T16:41:02.070Z,101910.88
2023-05-03T16:43:29.491Z,101906.19
2023-05-03T16:46:00.481Z,101913.53
2023-05-03T16:48:28.955Z,101920.63
2023-05-03T16:50:56.326Z,101904.69
2023-05-03T16:53:23.576Z,101911.97
2023-05-03T16:55:50.412Z,101906.63
2023-05-03T16:58:18.685Z,101901.66
2023-05-03T17:00:46.273Z,101913.00
2023-05-03T17:03:13.906Z,101908.16
2023-05-03T17:05:40.827Z,101911.06
2023-05-03T17:08:11.069Z,101913.69
2023-05-03T17:10:41.656Z,101902.13
2023-05-03T17:13:09.576Z,101911.56
2023-05-03T17:15:36.989Z,101916.75
2023-05-03T17:18:05.000Z,101906.84
2023-05-03T17:20:33.037Z,101900.56
2023-05-03T17:22:59.997Z,101910.03
2023-05-03T17:25:27.162Z,101903.78
2023-05-03T17:27:54.099Z,101901.34
2023-05-03T17:30:29.177Z,101905.69
2023-05-03T17:32:57.083Z,101889.47
2023-05-03T17:35:24.252Z,101894.00
2023-05-03T17:37:50.973Z,101898.47
2023-05-03T17:40:17.895Z,101896.06
2023-05-03T17:42:45.676Z,101895.59
2023-05-03T17:45:12.906Z,101893.44
2023-05-03T17:47:40.096Z,101898.25
2023-05-03T17:50:07.595Z,101897.88
2023-05-03T17:52:34.321Z,101891.19
2023-05-03T17:55:02.772Z,101884.84
2023-05-03T17:57:29.914Z,101892.50
2023-05-03T17:59:56.951Z,101891.84
2023-05-03T18:02:23.878Z,101886.44
2023-05-03T18:04:50.957Z,101890.13
2023-05-03T18:07:17.824Z,101887.44
2023-05-03T18:09:44.665Z,101883.47
2023-05-03T18:12:11.540Z,101873.44
2023-05-03T18:14:39.083Z,101877.50
2023-05-03T18:17:07.839Z,101878.03
2023-05-03T18:19:34.755Z,101893.22
2023-05-03T18:22:01.938Z,101881.88
2023-05-03T18:24:54.984Z,101897.69
2023-05-03T18:27:22.834Z,101886.59
2023-05-03T18:29:49.607Z,101890.63
2023-05-03T18:32:16.976Z,101885.22
2023-05-03T18:34:43.897Z,101897.59
2023-05-03T18:37:10.851Z,101893.91
2023-05-03T18:39:37.836Z,101893.09
2023-05-03T18:42:04.937Z,101887.78
2023-05-03T18:44:32.291Z,101886.63
2023-05-03T18:46:59.098Z,101886.88
2023-05-03T18:49:25.784Z,101885.72
2023-05-03T18:51:52.745Z,101886.53
2023-05-03T18:54:20.428Z,101886.84
2023-05-03T18:56:49.410Z,101892.31
2023-05-03T18:59:16.290Z,101893.47
2023-05-03T19:01:43.211Z,101886.19
2023-05-03T19:04:14.921Z,101883.44
2023-05-03T19:06:42.370Z,101879.97
2023-05-03T19:09:12.133Z,101881.59
2023-05-03T19:11:43.011Z,101884.47
2023-05-03T19:14:10.169Z,101884.78
2023-05-03T19:16:37.071Z,101884.97
2023-05-03T19:19:03.901Z,101881.97
2023-05-03T19:21:31.693Z,101881.56
2023-05-03T19:23:59.068Z,101879.00
2023-05-03T19:26:27.221Z,101879.78
2023-05-03T19:28:54.195Z,101883.28
2023-05-03T19:31:21.033Z,101881.34
2023-05-03T19:33:51.489Z,101880.94
2023-05-03T19:36:18.356Z,101882.19
2023-05-03T19:38:45.151Z,101895.69
2023-05-03T19:41:14.726Z,101892.34
2023-05-03T19:43:42.228Z,101898.78
2023-05-03T19:46:11.118Z,101885.50
2023-05-03T19:48:38.085Z,101890.97
2023-05-03T19:51:05.892Z,101895.25
2023-05-03T19:53:34.134Z,101894.03
2023-05-03T19:56:02.822Z,101898.72
2023-05-03T19:58:31.816Z,101896.03
2023-05-03T20:00:59.661Z,101897.22
2023-05-03T20:03:27.715Z,101890.09
2023-05-03T20:05:54.689Z,101892.59
2023-05-03T20:08:22.750Z,101905.84
2023-05-03T20:10:52.480Z,101884.91
2023-05-03T20:13:29.885Z,101891.72
2023-05-03T20:16:02.568Z,101883.66
2023-05-03T20:18:29.393Z,101892.19
2023-05-03T20:20:56.421Z,101883.34
2023-05-03T20:23:23.282Z,101888.03
2023-05-03T20:25:50.976Z,101892.72
2023-05-03T20:28:18.136Z,101893.59
2023-05-03T20:30:45.414Z,101889.00
2023-05-03T20:33:12.782Z,101880.97
2023-05-03T20:35:40.038Z,101874.66
2023-05-03T20:38:07.186Z,101884.47
2023-05-03T20:40:35.026Z,101876.38
2023-05-03T20:43:02.017Z,101877.59
2023-05-03T20:45:29.422Z,101868.75
2023-05-03T20:47:56.470Z,101869.34
2023-05-03T20:50:23.780Z,101862.22
2023-05-03T20:52:51.012Z,101865.94
2023-05-03T20:55:18.257Z,101872.47
2023-05-03T20:57:45.316Z,101863.78
2023-05-03T21:00:12.792Z,101863.13
2023-05-03T21:02:42.501Z,101840.81
2023-05-03T21:05:10.705Z,101859.94
2023-05-03T21:07:38.708Z,101860.66
2023-05-03T21:10:07.459Z,101856.91
2023-05-03T21:12:35.091Z,101869.38
2023-05-03T21:15:02.340Z,101857.31
2023-05-03T21:17:29.134Z,101854.19
2023-05-03T21:19:56.065Z,101847.75
2023-05-03T21:22:22.875Z,101852.41
2023-05-03T21:24:50.204Z,101853.84
2023-05-03T21:27:19.409Z,101848.19
2023-05-03T21:29:47.800Z,101846.63
2023-05-03T21:32:15.455Z,101854.50
2023-05-03T21:34:42.762Z,101836.03
2023-05-03T21:37:09.628Z,101850.81
2023-05-03T21:39:37.003Z,101848.94
2023-05-03T21:42:04.248Z,101835.31
2023-05-03T21:44:31.826Z,101838.13
2023-05-03T21:46:58.735Z,101837.47
2023-05-03T21:49:25.621Z,101835.19
2023-05-03T21:51:52.459Z,101829.91
2023-05-03T21:54:19.369Z,101834.09
2023-05-03T21:56:46.239Z,101839.28
2023-05-03T21:59:13.068Z,101832.81
2023-05-03T22:01:40.484Z,101836.09
2023-05-03T22:04:07.747Z,101839.16
2023-05-03T22:06:34.782Z,101833.75
2023-05-03T22:09:02.080Z,101827.81
2023-05-03T22:11:29.513Z,101837.75
2023-05-03T22:14:07.461Z,101832.91
2023-05-03T22:16:37.565Z,101842.03
2023-05-03T22:19:05.545Z,101833.34
2023-05-03T22:21:32.662Z,101835.25
2023-05-03T22:23:59.950Z,101831.88
2023-05-03T22:26:27.108Z,101834.25
2023-05-03T22:28:54.787Z,101825.44
2023-05-03T22:31:21.785Z,101835.06
2023-05-03T22:33:49.100Z,101823.31
2023-05-03T22:36:16.157Z,101820.13
2023-05-03T22:38:43.844Z,101819.63
2023-05-03T22:41:11.018Z,101812.16
2023-05-03T22:43:37.884Z,101809.94
2023-05-03T22:46:05.186Z,101813.19
2023-05-03T22:48:34.220Z,101807.72
2023-05-03T22:51:01.062Z,101799.34
2023-05-03T22:53:28.090Z,101801.47
2023-05-03T22:55:59.225Z,101792.09
2023-05-03T22:58:26.203Z,101791.09
2023-05-03T23:00:54.251Z,101794.88
2023-05-03T23:03:21.941Z,101777.72
2023-05-03T23:05:51.199Z,101780.16
2023-05-03T23:08:18.388Z,101786.72
2023-05-03T23:10:45.142Z,101788.63
2023-05-03T23:13:12.386Z,101787.19
2023-05-03T23:15:39.614Z,101780.16
2023-05-03T23:18:11.139Z,101773.50
2023-05-03T23:20:37.991Z,101780.13
2023-05-03T23:23:04.968Z,101767.63
2023-05-03T23:25:31.812Z,101760.78
2023-05-03T23:27:58.600Z,101769.72
2023-05-03T23:30:25.920Z,101760.69
2023-05-03T23:32:53.262Z,101762.63
2023-05-03T23:35:21.455Z,101761.34
2023-05-03T23:37:48.211Z,101758.94
2023-05-03T23:40:15.183Z,101755.53
2023-05-03T23:42:43.844Z,101762.31
2023-05-03T23:45:11.642Z,101751.72
2023-05-03T23:47:38.839Z,101747.88
2023-05-03T23:50:06.506Z,101755.41
2023-05-03T23:52:33.463Z,101748.00
2023-05-03T23:55:00.303Z,101742.84
2023-05-03T23:57:27.066Z,101741.13
2023-05-03T23:59:54.185Z,101738.88
